createdAt,value
2018-09-11T00:00:43.746Z,98541.09
2018-09-11T00:03:13.034Z,98543.23
2018-09-11T00:05:42.295Z,98542.68
2018-09-11T00:08:11.615Z,98541.60
2018-09-11T00:10:40.870Z,98544.55
2018-09-11T00:13:10.213Z,98540.50
2018-09-11T00:15:39.469Z,98545.02
2018-09-11T00:18:08.769Z,98548.19
2018-09-11T00:20:38.022Z,98544.17
2018-09-11T00:23:07.397Z,98550.89
2018-09-11T00:25:36.657Z,98548.73
2018-09-11T00:28:06.037Z,98545.77
2018-09-11T00:30:35.361Z,98541.18
2018-09-11T00:33:04.709Z,98540.14
2018-09-11T00:35:33.990Z,98537.96
2018-09-11T00:38:03.312Z,98539.33
2018-09-11T00:40:32.581Z,98533.68
2018-09-11T00:43:01.886Z,98531.53
2018-09-11T00:45:31.188Z,98522.09
2018-09-11T00:48:00.468Z,98532.84
2018-09-11T00:50:29.750Z,98525.30
2018-09-11T00:52:59.043Z,98539.48
2018-09-11T00:55:28.312Z,98540.80
2018-09-11T00:57:57.584Z,98540.27
2018-09-11T01:00:26.871Z,98544.04
2018-09-11T01:02:56.146Z,98547.23
2018-09-11T01:05:25.428Z,98550.72
2018-09-11T01:07:54.717Z,98547.78
2018-09-11T01:10:24.014Z,98555.81
2018-09-11T01:12:53.359Z,98555.53
2018-09-11T01:15:22.636Z,98559.03
2018-09-11T01:17:51.913Z,98555.78
2018-09-11T01:20:21.141Z,98557.36
2018-09-11T01:22:50.451Z,98558.42
2018-09-11T01:25:19.727Z,98560.30
2018-09-11T01:27:49.029Z,98564.24
2018-09-11T01:30:20.572Z,98566.84
2018-09-11T01:32:50.702Z,98567.09
2018-09-11T01:35:20.426Z,98571.11
2018-09-11T01:37:49.718Z,98571.84
2018-09-11T01:40:19.029Z,98575.17
2018-09-11T01:42:48.323Z,98576.96
2018-09-11T01:45:17.661Z,98574.71
2018-09-11T01:47:47.185Z,98574.95
2018-09-11T01:50:16.581Z,98577.10
2018-09-11T01:52:45.861Z,98580.80
2018-09-11T01:55:15.169Z,98585.09
2018-09-11T01:57:44.419Z,98585.09
2018-09-11T02:00:17.594Z,98582.66
2018-09-11T02:02:47.494Z,98583.47
2018-09-11T02:05:17.114Z,98585.56
2018-09-11T02:07:46.493Z,98585.67
2018-09-11T02:10:15.787Z,98582.59
2018-09-11T02:12:45.040Z,98588.24
2018-09-11T02:15:14.357Z,98584.73
2018-09-11T02:17:43.618Z,98582.70
2018-09-11T02:20:12.957Z,98584.56
2018-09-11T02:22:42.216Z,98581.17
2018-09-11T02:25:11.527Z,98585.95
2018-09-11T02:27:40.787Z,98587.07
2018-09-11T02:30:10.082Z,98587.57
2018-09-11T02:32:39.341Z,98594.07
2018-09-11T02:35:08.672Z,98585.72
2018-09-11T02:37:37.918Z,98591.31
2018-09-11T02:40:07.199Z,98587.28
2018-09-11T02:42:36.413Z,98589.30
2018-09-11T02:45:05.759Z,98582.90
2018-09-11T02:47:35.015Z,98591.81
2018-09-11T02:50:04.465Z,98594.75
2018-09-11T02:52:33.685Z,98592.30
2018-09-11T02:55:02.958Z,98599.22
2018-09-11T02:57:32.199Z,98594.98
2018-09-11T03:00:01.429Z,98596.52
2018-09-11T03:02:30.660Z,98604.09
2018-09-11T03:04:59.867Z,98598.84
2018-09-11T03:07:29.078Z,98605.95
2018-09-11T03:09:58.281Z,98605.64
2018-09-11T03:12:27.510Z,98603.39
2018-09-11T03:14:56.750Z,98611.97
2018-09-11T03:17:26.032Z,98607.77
2018-09-11T03:19:55.266Z,98614.44
2018-09-11T03:22:24.593Z,98614.44
2018-09-11T03:24:53.826Z,98619.22
2018-09-11T03:27:23.093Z,98621.84
2018-09-11T03:29:52.422Z,98617.67
2018-09-11T03:32:21.670Z,98618.31
2018-09-11T03:34:51.140Z,98620.92
2018-09-11T03:37:20.527Z,98623.55
2018-09-11T03:39:49.841Z,98633.19
2018-09-11T03:42:19.149Z,98625.17
2018-09-11T03:44:48.491Z,98626.52
2018-09-11T03:47:17.830Z,98623.77
2018-09-11T03:49:47.086Z,98623.77
2018-09-11T03:52:16.382Z,98630.36
2018-09-11T03:54:45.641Z,98628.26
2018-09-11T03:57:14.942Z,98631.52
2018-09-11T03:59:45.183Z,98640.45
2018-09-11T04:02:14.495Z,98638.72
2018-09-11T04:04:43.775Z,98647.80
2018-09-11T04:07:13.046Z,98651.28
2018-09-11T04:09:42.275Z,98648.52
2018-09-11T04:12:11.484Z,98648.67
2018-09-11T04:14:40.722Z,98648.15
2018-09-11T04:17:09.986Z,98645.12
2018-09-11T04:19:39.257Z,98652.63
2018-09-11T04:22:08.505Z,98652.83
2018-09-11T04:24:37.724Z,98646.61
2018-09-11T04:27:07.094Z,98645.13
2018-09-11T04:29:36.397Z,98644.45
2018-09-11T04:32:05.650Z,98646.11
2018-09-11T04:34:34.852Z,98642.66
2018-09-11T04:37:04.086Z,98637.88
2018-09-11T04:39:33.355Z,98646.11
2018-09-11T04:42:02.565Z,98641.26
2018-09-11T04:44:31.880Z,98647.95
2018-09-11T04:47:01.140Z,98641.64
2018-09-11T04:49:30.406Z,98640.84
2018-09-11T04:51:59.654Z,98645.38
2018-09-11T04:54:28.926Z,98638.11
2018-09-11T04:56:58.198Z,98646.72
2018-09-11T04:59:27.455Z,98639.74
2018-09-11T05:01:56.925Z,98646.63
2018-09-11T05:04:26.025Z,98650.64
2018-09-11T05:06:55.373Z,98654.28
2018-09-11T05:09:24.713Z,98655.99
2018-09-11T05:11:54.009Z,98654.18
2018-09-11T05:14:23.262Z,98656.75
2018-09-11T05:16:52.550Z,98656.72
2018-09-11T05:19:21.933Z,98647.80
2018-09-11T05:21:51.190Z,98650.88
2018-09-11T05:24:20.469Z,98663.73
2018-09-11T05:26:49.693Z,98652.70
2018-09-11T05:29:18.995Z,98660.70
2018-09-11T05:31:48.262Z,98660.70
2018-09-11T05:34:17.606Z,98669.11
2018-09-11T05:36:46.992Z,98670.00
2018-09-11T05:39:16.270Z,98671.13
2018-09-11T05:41:45.529Z,98681.14
2018-09-11T05:44:14.865Z,98675.00
2018-09-11T05:46:44.183Z,98679.25
2018-09-11T05:49:13.471Z,98672.94
2018-09-11T05:51:42.706Z,98677.86
2018-09-11T05:54:12.039Z,98690.53
2018-09-11T05:56:41.390Z,98679.16
2018-09-11T05:59:10.692Z,98682.78
2018-09-11T06:01:40.060Z,98677.86
2018-09-11T06:04:09.431Z,98687.91
2018-09-11T06:06:38.744Z,98686.72
2018-09-11T06:09:11.535Z,98692.45
2018-09-11T06:11:40.839Z,98684.00
2018-09-11T06:14:10.546Z,98698.37
2018-09-11T06:16:39.805Z,98701.23
2018-09-11T06:19:10.124Z,98701.12
2018-09-11T06:21:39.618Z,98705.25
2018-09-11T06:24:08.910Z,98700.81
2018-09-11T06:26:38.227Z,98693.88
2018-09-11T06:29:07.633Z,98690.53
2018-09-11T06:31:36.834Z,98688.98
2018-09-11T06:34:06.215Z,98692.25
2018-09-11T06:36:35.328Z,98692.06
2018-09-11T06:39:05.590Z,98700.41
2018-09-11T06:41:34.907Z,98701.80
2018-09-11T06:44:04.182Z,98696.70
2018-09-11T06:46:33.902Z,98695.63
2018-09-11T06:49:03.627Z,98696.67
2018-09-11T06:51:33.058Z,98692.34
2018-09-11T06:54:02.459Z,98701.18
2018-09-11T06:56:31.949Z,98703.05
2018-09-11T06:59:01.348Z,98705.17
2018-09-11T07:01:30.571Z,98699.88
2018-09-11T07:03:59.817Z,98698.22
2018-09-11T07:06:29.136Z,98699.03
2018-09-11T07:08:58.387Z,98702.35
2018-09-11T07:11:27.682Z,98697.38
2018-09-11T07:13:56.888Z,98688.58
2018-09-11T07:16:26.182Z,98698.50
2018-09-11T07:18:55.467Z,98693.99
2018-09-11T07:21:24.787Z,98699.89
2018-09-11T07:23:54.079Z,98696.16
2018-09-11T07:26:23.746Z,98694.80
2018-09-11T07:28:53.363Z,98693.98
2018-09-11T07:31:22.727Z,98694.56
2018-09-11T07:33:52.006Z,98694.94
2018-09-11T07:36:21.382Z,98695.75
2018-09-11T07:38:50.721Z,98701.52
2018-09-11T07:41:20.006Z,98697.30
2018-09-11T07:43:49.330Z,98699.53
2018-09-11T07:46:18.627Z,98701.31
2018-09-11T07:48:47.928Z,98698.41
2018-09-11T07:51:17.290Z,98702.41
2018-09-11T07:53:46.663Z,98707.78
2018-09-11T07:56:16.067Z,98703.47
2018-09-11T07:58:45.438Z,98707.38
2018-09-11T08:01:14.749Z,98720.47
2018-09-11T08:03:44.067Z,98718.67
2018-09-11T08:06:13.403Z,98724.08
2018-09-11T08:08:42.700Z,98722.27
2018-09-11T08:11:12.080Z,98718.80
2018-09-11T08:13:41.462Z,98714.52
2018-09-11T08:16:10.828Z,98722.35
2018-09-11T08:18:40.044Z,98712.55
2018-09-11T08:21:09.389Z,98717.50
2018-09-11T08:23:38.690Z,98715.36
2018-09-11T08:26:08.277Z,98713.52
2018-09-11T08:28:37.587Z,98710.82
2018-09-11T08:31:06.974Z,98708.92
2018-09-11T08:33:36.256Z,98707.41
2018-09-11T08:36:05.589Z,98711.60
2018-09-11T08:38:34.924Z,98705.58
2018-09-11T08:41:04.268Z,98707.56
2018-09-11T08:43:33.477Z,98710.86
2018-09-11T08:46:02.794Z,98710.72
2018-09-11T08:48:31.992Z,98717.70
2018-09-11T08:51:01.248Z,98714.98
2018-09-11T08:53:30.569Z,98718.00
2018-09-11T08:55:59.829Z,98715.91
2018-09-11T08:58:29.129Z,98712.89
2018-09-11T09:00:58.354Z,98714.66
2018-09-11T09:03:27.649Z,98716.75
2018-09-11T09:05:57.182Z,98715.12
2018-09-11T09:08:26.568Z,98710.16
2018-09-11T09:10:56.067Z,98712.52
2018-09-11T09:13:25.462Z,98712.22
2018-09-11T09:15:54.739Z,98710.78
2018-09-11T09:18:24.044Z,98711.58
2018-09-11T09:20:53.344Z,98706.84
2018-09-11T09:23:22.626Z,98700.81
2018-09-11T09:25:51.949Z,98704.12
2018-09-11T09:28:21.170Z,98705.22
2018-09-11T09:30:50.397Z,98714.55
2018-09-11T09:33:19.658Z,98706.25
2018-09-11T09:35:48.902Z,98710.72
2018-09-11T09:38:18.218Z,98704.98
2018-09-11T09:40:47.533Z,98697.48
2018-09-11T09:43:16.806Z,98697.86
2018-09-11T09:45:46.075Z,98692.70
2018-09-11T09:48:15.365Z,98696.39
2018-09-11T09:50:44.701Z,98702.05
2018-09-11T09:53:13.976Z,98706.91
2018-09-11T09:55:43.242Z,98696.93
2018-09-11T09:58:12.562Z,98693.33
2018-09-11T10:00:46.994Z,98688.70
2018-09-11T10:03:16.328Z,98692.59
2018-09-11T10:05:45.722Z,98693.31
2018-09-11T10:08:15.066Z,98685.76
2018-09-11T10:10:45.283Z,98680.52
2018-09-11T10:13:14.562Z,98671.38
2018-09-11T10:15:44.230Z,98670.39
2018-09-11T10:18:13.562Z,98673.20
2018-09-11T10:20:43.035Z,98672.72
2018-09-11T10:23:12.342Z,98670.48
2018-09-11T10:25:41.635Z,98667.05
2018-09-11T10:28:11.008Z,98667.92
2018-09-11T10:30:40.371Z,98669.38
2018-09-11T10:33:09.666Z,98664.41
2018-09-11T10:35:39.158Z,98663.49
2018-09-11T10:38:08.580Z,98663.19
2018-09-11T10:40:37.838Z,98665.31
2018-09-11T10:43:07.260Z,98662.72
2018-09-11T10:45:36.548Z,98658.56
2018-09-11T10:48:05.920Z,98655.89
2018-09-11T10:50:35.244Z,98653.08
2018-09-11T10:53:04.593Z,98644.39
2018-09-11T10:55:33.871Z,98651.08
2018-09-11T10:58:03.230Z,98648.17
2018-09-11T11:00:32.622Z,98652.83
2018-09-11T11:03:01.899Z,98648.75
2018-09-11T11:05:31.250Z,98641.94
2018-09-11T11:08:00.565Z,98633.69
2018-09-11T11:10:30.061Z,98640.50
2018-09-11T11:12:59.302Z,98638.45
2018-09-11T11:15:28.565Z,98636.48
2018-09-11T11:17:57.861Z,98639.60
2018-09-11T11:20:27.123Z,98637.78
2018-09-11T11:22:56.386Z,98636.52
2018-09-11T11:25:25.664Z,98639.06
2018-09-11T11:27:55.011Z,98626.12
2018-09-11T11:30:24.373Z,98622.36
2018-09-11T11:32:53.808Z,98621.33
2018-09-11T11:35:23.117Z,98615.78
2018-09-11T11:37:52.451Z,98610.69
2018-09-11T11:40:21.879Z,98621.34
2018-09-11T11:42:51.187Z,98613.81
2018-09-11T11:45:23.938Z,98619.52
2018-09-11T11:47:53.613Z,98623.13
2018-09-11T11:50:23.875Z,98616.30
2018-09-11T11:52:53.201Z,98609.90
2018-09-11T11:55:22.626Z,98606.49
2018-09-11T11:57:51.910Z,98602.25
2018-09-11T12:00:21.210Z,98601.56
2018-09-11T12:02:52.030Z,98599.58
2018-09-11T12:05:21.479Z,98599.83
2018-09-11T12:07:50.855Z,98600.95
2018-09-11T12:10:20.146Z,98593.88
2018-09-11T12:12:49.466Z,98589.22
2018-09-11T12:15:18.902Z,98588.55
2018-09-11T12:17:48.430Z,98592.76
2018-09-11T12:20:17.751Z,98585.73
2018-09-11T12:22:47.043Z,98586.66
2018-09-11T12:25:16.454Z,98581.77
2018-09-11T12:27:45.783Z,98578.86
2018-09-11T12:30:15.092Z,98573.36
2018-09-11T12:32:44.386Z,98581.13
2018-09-11T12:35:13.778Z,98579.92
2018-09-11T12:37:43.012Z,98564.33
2018-09-11T12:40:12.303Z,98565.83
2018-09-11T12:42:41.624Z,98560.71
2018-09-11T12:45:11.020Z,98568.06
2018-09-11T12:47:40.876Z,98565.19
2018-09-11T12:50:09.528Z,98567.34
2018-09-11T12:52:38.810Z,98563.60
2018-09-11T12:55:08.064Z,98559.50
2018-09-11T12:57:37.406Z,98565.94
2018-09-11T13:00:08.365Z,98562.57
2018-09-11T13:02:37.621Z,98556.33
2018-09-11T13:05:06.917Z,98556.84
2018-09-11T13:07:36.313Z,98551.66
2018-09-11T13:10:05.922Z,98553.86
2018-09-11T13:12:35.209Z,98551.61
2018-09-11T13:15:04.633Z,98556.83
2018-09-11T13:17:33.788Z,98554.03
2018-09-11T13:20:03.039Z,98552.45
2018-09-11T13:22:32.301Z,98552.67
2018-09-11T13:25:01.522Z,98556.83
2018-09-11T13:27:30.821Z,98549.17
2018-09-11T13:30:00.611Z,98544.61
2018-09-11T13:32:29.887Z,98546.75
2018-09-11T13:34:59.133Z,98553.03
2018-09-11T13:37:28.478Z,98542.95
2018-09-11T13:39:57.730Z,98543.64
2018-09-11T13:42:27.110Z,98540.52
2018-09-11T13:44:56.349Z,98543.04
2018-09-11T13:47:25.766Z,98537.09
2018-09-11T13:49:54.910Z,98535.19
2018-09-11T13:52:24.203Z,98532.42
2018-09-11T13:54:53.496Z,98538.80
2018-09-11T13:57:22.821Z,98538.01
2018-09-11T13:59:52.064Z,98539.06
2018-09-11T14:02:21.346Z,98536.88
2018-09-11T14:04:50.659Z,98525.60
2018-09-11T14:07:20.081Z,98523.17
2018-09-11T14:09:49.494Z,98520.68
2018-09-11T14:12:18.845Z,98519.80
2018-09-11T14:14:48.189Z,98514.48
2018-09-11T14:17:17.462Z,98517.13
2018-09-11T14:19:46.754Z,98523.22
2018-09-11T14:22:22.340Z,98521.92
2018-09-11T14:24:51.639Z,98512.80
2018-09-11T14:27:20.951Z,98514.43
2018-09-11T14:29:50.289Z,98513.63
2018-09-11T14:32:19.559Z,98512.92
2018-09-11T14:34:48.762Z,98505.63
2018-09-11T14:37:18.051Z,98503.38
2018-09-11T14:39:47.266Z,98490.58
2018-09-11T14:42:16.582Z,98498.52
2018-09-11T14:44:45.959Z,98496.34
2018-09-11T14:47:15.230Z,98497.55
2018-09-11T14:49:44.630Z,98496.86
2018-09-11T14:52:13.919Z,98500.72
2018-09-11T14:54:43.235Z,98503.83
2018-09-11T14:57:12.892Z,98501.19
2018-09-11T14:59:42.222Z,98501.32
2018-09-11T15:02:11.625Z,98491.84
2018-09-11T15:04:41.005Z,98489.32
2018-09-11T15:07:10.281Z,98486.38
2018-09-11T15:09:39.623Z,98483.50
2018-09-11T15:12:09.002Z,98484.66
2018-09-11T15:14:38.257Z,98470.41
2018-09-11T15:17:07.511Z,98467.98
2018-09-11T15:19:36.801Z,98462.07
2018-09-11T15:22:06.092Z,98465.50
2018-09-11T15:24:35.382Z,98463.10
2018-09-11T15:27:04.683Z,98463.68
2018-09-11T15:29:34.022Z,98465.73
2018-09-11T15:32:03.630Z,98455.45
2018-09-11T15:34:32.973Z,98455.83
2018-09-11T15:37:02.289Z,98461.84
2018-09-11T15:39:31.606Z,98448.62
2018-09-11T15:42:00.880Z,98453.20
2018-09-11T15:44:30.284Z,98450.91
2018-09-11T15:46:59.589Z,98447.92
2018-09-11T15:49:29.007Z,98452.59
2018-09-11T15:51:58.292Z,98450.66
2018-09-11T15:54:27.680Z,98442.94
2018-09-11T15:56:56.990Z,98443.70
2018-09-11T15:59:26.281Z,98446.34
2018-09-11T16:01:55.586Z,98443.38
2018-09-11T16:04:24.994Z,98439.97
2018-09-11T16:06:54.357Z,98439.27
2018-09-11T16:09:23.735Z,98440.41
2018-09-11T16:11:53.021Z,98432.56
2018-09-11T16:14:22.337Z,98435.04
2018-09-11T16:16:51.698Z,98431.94
2018-09-11T16:19:20.748Z,98424.96
2018-09-11T16:21:50.028Z,98431.80
2018-09-11T16:24:19.322Z,98432.22
2018-09-11T16:26:48.633Z,98436.08
2018-09-11T16:29:17.913Z,98432.06
2018-09-11T16:31:47.262Z,98435.69
2018-09-11T16:34:16.520Z,98427.81
2018-09-11T16:36:45.773Z,98427.37
2018-09-11T16:39:15.005Z,98424.16
2018-09-11T16:41:44.276Z,98433.16
2018-09-11T16:44:13.602Z,98430.23
2018-09-11T16:46:42.905Z,98426.52
2018-09-11T16:49:12.142Z,98428.85
2018-09-11T16:51:41.441Z,98429.84
2018-09-11T16:54:10.732Z,98425.34
2018-09-11T16:56:40.103Z,98432.67
2018-09-11T16:59:09.606Z,98439.37
2018-09-11T17:01:38.894Z,98438.38
2018-09-11T17:04:08.174Z,98431.11
2018-09-11T17:06:37.487Z,98438.30
2018-09-11T17:09:09.430Z,98437.69
2018-09-11T17:11:38.690Z,98443.89
2018-09-11T17:14:07.902Z,98438.25
2018-09-11T17:16:37.247Z,98445.63
2018-09-11T17:19:06.470Z,98449.59
2018-09-11T17:21:35.751Z,98446.53
2018-09-11T17:24:05.947Z,98448.21
2018-09-11T17:26:35.289Z,98446.23
2018-09-11T17:29:04.634Z,98446.17
2018-09-11T17:31:33.937Z,98447.94
2018-09-11T17:34:03.221Z,98451.68
2018-09-11T17:36:33.154Z,98450.72
2018-09-11T17:39:09.391Z,98453.87
2018-09-11T17:41:39.167Z,98458.22
2018-09-11T17:44:08.439Z,98455.33
2018-09-11T17:46:37.868Z,98456.19
2018-09-11T17:49:07.143Z,98462.25
2018-09-11T17:51:36.442Z,98464.62
2018-09-11T17:54:05.927Z,98466.27
2018-09-11T17:56:35.212Z,98463.16
2018-09-11T17:59:04.426Z,98469.05
2018-09-11T18:01:34.319Z,98470.05
2018-09-11T18:04:03.581Z,98470.66
2018-09-11T18:06:32.863Z,98473.34
2018-09-11T18:09:02.080Z,98478.40
2018-09-11T18:11:31.113Z,98480.86
2018-09-11T18:14:00.427Z,98486.52
2018-09-11T18:16:29.706Z,98488.91
2018-09-11T18:18:58.953Z,98485.73
2018-09-11T18:21:28.423Z,98484.13
2018-09-11T18:24:02.754Z,98479.55
2018-09-11T18:26:32.053Z,98480.38
2018-09-11T18:29:01.334Z,98482.25
2018-09-11T18:31:30.560Z,98484.56
2018-09-11T18:33:59.851Z,98485.31
2018-09-11T18:36:29.239Z,98488.94
2018-09-11T18:38:58.563Z,98495.61
2018-09-11T18:44:05.762Z,98491.09
2018-09-11T18:46:34.990Z,98496.35
2018-09-11T18:49:04.623Z,98497.86
2018-09-11T18:51:33.978Z,98501.93
2018-09-11T18:54:03.297Z,98505.03
2018-09-11T18:56:32.918Z,98503.70
2018-09-11T18:59:02.455Z,98503.75
2018-09-11T19:01:31.726Z,98505.67
2018-09-11T19:04:01.062Z,98499.47
2018-09-11T19:06:30.238Z,98506.36
2018-09-11T19:08:59.535Z,98510.81
2018-09-11T19:11:29.353Z,98516.17
2018-09-11T19:13:58.707Z,98514.41
2018-09-11T19:16:29.135Z,98513.95
2018-09-11T19:18:58.514Z,98517.34
2018-09-11T19:21:28.183Z,98516.84
2018-09-11T19:24:01.802Z,98515.02
2018-09-11T19:26:31.042Z,98508.07
2018-09-11T19:29:00.383Z,98507.53
2018-09-11T19:31:29.735Z,98514.81
2018-09-11T19:33:59.076Z,98512.22
2018-09-11T19:36:28.355Z,98509.76
2018-09-11T19:38:57.653Z,98514.37
2018-09-11T19:41:26.953Z,98509.52
2018-09-11T19:43:56.522Z,98510.13
2018-09-11T19:46:25.880Z,98507.36
2018-09-11T19:48:55.310Z,98506.82
2018-09-11T19:51:24.601Z,98514.07
2018-09-11T19:53:53.976Z,98508.95
2018-09-11T19:56:23.444Z,98517.94
2018-09-11T19:58:55.337Z,98508.56
2018-09-11T20:01:24.565Z,98517.88
2018-09-11T20:03:54.333Z,98518.19
2018-09-11T20:06:23.972Z,98516.88
2018-09-11T20:08:53.310Z,98509.09
2018-09-11T20:11:22.668Z,98508.61
2018-09-11T20:13:51.958Z,98504.35
2018-09-11T20:16:21.323Z,98507.34
2018-09-11T20:18:53.173Z,98511.41
2018-09-11T20:21:22.317Z,98508.75
2018-09-11T20:23:51.670Z,98512.80
2018-09-11T20:26:20.982Z,98509.53
2018-09-11T20:28:50.430Z,98504.69
2018-09-11T20:31:19.772Z,98501.98
2018-09-11T20:33:49.123Z,98503.09
2018-09-11T20:36:18.455Z,98510.37
2018-09-11T20:38:47.789Z,98507.37
2018-09-11T20:41:17.103Z,98511.17
2018-09-11T20:43:46.378Z,98513.56
2018-09-11T20:46:15.626Z,98516.58
2018-09-11T20:48:45.014Z,98518.48
2018-09-11T20:51:14.353Z,98517.66
2018-09-11T20:53:43.738Z,98517.67
2018-09-11T20:56:12.951Z,98516.05
2018-09-11T20:58:42.210Z,98520.91
2018-09-11T21:01:11.554Z,98520.94
2018-09-11T21:03:40.825Z,98516.34
2018-09-11T21:06:10.269Z,98521.73
2018-09-11T21:08:39.522Z,98514.20
2018-09-11T21:11:08.766Z,98521.20
2018-09-11T21:13:38.007Z,98517.42
2018-09-11T21:16:07.296Z,98517.97
2018-09-11T21:18:36.703Z,98517.69
2018-09-11T21:21:06.284Z,98520.39
2018-09-11T21:23:35.559Z,98520.39
2018-09-11T21:26:04.919Z,98513.92
2018-09-11T21:28:34.277Z,98516.36
2018-09-11T21:31:03.595Z,98511.22
2018-09-11T21:33:32.850Z,98515.00
2018-09-11T21:36:02.158Z,98513.38
2018-09-11T21:38:31.469Z,98514.47
2018-09-11T21:41:00.769Z,98518.22
2018-09-11T21:43:30.419Z,98517.95
2018-09-11T21:45:59.787Z,98520.64
2018-09-11T21:48:29.042Z,98518.77
2018-09-11T21:50:58.461Z,98520.08
2018-09-11T21:53:27.750Z,98527.57
2018-09-11T21:55:57.086Z,98529.45
2018-09-11T21:58:26.356Z,98526.78
2018-09-11T22:01:00.863Z,98518.95
2018-09-11T22:03:30.149Z,98529.15
2018-09-11T22:05:59.694Z,98527.81
2018-09-11T22:08:28.978Z,98525.66
2018-09-11T22:10:58.315Z,98528.32
2018-09-11T22:13:27.604Z,98527.80
2018-09-11T22:15:57.019Z,98526.98
2018-09-11T22:18:26.314Z,98530.19
2018-09-11T22:20:55.678Z,98530.95
2018-09-11T22:23:25.049Z,98528.82
2018-09-11T22:25:54.439Z,98530.66
2018-09-11T22:28:23.728Z,98531.76
2018-09-11T22:30:53.045Z,98521.27
2018-09-11T22:33:22.325Z,98530.08
2018-09-11T22:35:51.589Z,98530.05
2018-09-11T22:38:20.909Z,98530.89
2018-09-11T22:40:50.236Z,98527.12
2018-09-11T22:43:19.485Z,98523.09
2018-09-11T22:45:48.810Z,98519.03
2018-09-11T22:48:18.081Z,98519.78
2018-09-11T22:50:47.430Z,98516.04
2018-09-11T22:53:16.732Z,98513.64
2018-09-11T22:55:46.243Z,98514.73
2018-09-11T22:58:15.501Z,98512.58
2018-09-11T23:00:44.753Z,98514.45
2018-09-11T23:03:14.049Z,98513.10
2018-09-11T23:05:43.331Z,98512.52
2018-09-11T23:08:12.608Z,98513.05
2018-09-11T23:10:41.936Z,98516.78
2018-09-11T23:13:11.225Z,98513.01
2018-09-11T23:15:40.535Z,98513.50
2018-09-11T23:18:09.821Z,98508.38
2018-09-11T23:20:39.154Z,98508.34
2018-09-11T23:23:08.429Z,98510.14
2018-09-11T23:25:37.752Z,98507.42
2018-09-11T23:28:07.060Z,98511.96
2018-09-11T23:30:36.309Z,98506.27
2018-09-11T23:33:05.657Z,98510.02
2018-09-11T23:35:34.946Z,98511.11
2018-09-11T23:38:04.160Z,98513.84
2018-09-11T23:40:33.363Z,98519.20
2018-09-11T23:43:02.603Z,98518.19
2018-09-11T23:45:31.788Z,98520.88
2018-09-11T23:48:01.102Z,98516.03
2018-09-11T23:50:30.302Z,98511.43
2018-09-11T23:52:59.558Z,98507.16
2018-09-11T23:55:28.766Z,98508.76
2018-09-11T23:57:58.020Z,98504.98
